« Back
NWS Peachtree City, Ga » Text Product » ATL Terminal Aerodrome Forecast


Printer-friendly Version
Current Version              Previous Versions:   1  2  3  4  5  6  7  8  9  

Terminal Aerodrome Forecast

513
FTUS42 KFFC 281539 AAB
TAFATL
TAF AMD
KATL 281539Z 2816/2918 24010G19KT P6SM BKN030
     FM281800 26012G20KT P6SM VCSH BKN045
     FM290100 26007KT P6SM SCT050 BKN100
     FM290600 26006KT P6SM SCT250=

USA.gov is the U.S. government's official web portal to all federal, state and local government web resources and services.